Time;durP1;ratioP1;P1;durP2;ratioP2;P2;SDS_P1;SDS_P2;PMS_P1;PMS_P2;Temp;Humidity;BMP_temperature;BMP_pressure;BME280_temperature;BME280_humidity;BME280_pressure;Samples;Min_cycle;Max_cycle;Signal;HPM_P1;HPM_P2
2022/07/23 00:00:30;;;;;;;7.72;5.35;;;;;;;18.33;70.48;101801.28;5006830;28;21712;-63
2022/07/23 00:02:55;;;;;;;7.72;4.85;;;;;;;18.30;70.65;101795.97;5008735;28;20026;-62
2022/07/23 00:05:21;;;;;;;6.68;4.93;;;;;;;18.24;70.54;101797.69;5007840;28;20057;-62
2022/07/23 00:07:47;;;;;;;7.97;5.07;;;;;;;18.23;70.72;101805.59;5008902;28;20065;-62
2022/07/23 00:10:12;;;;;;;7.40;5.00;;;;;;;18.18;70.72;101808.22;5008211;28;20129;-62
2022/07/23 00:12:39;;;;;;;8.35;4.97;;;;;;;18.15;70.22;101802.91;5009402;28;20509;-62
2022/07/23 00:15:06;;;;;;;7.75;4.65;;;;;;;18.11;70.37;101801.13;5007780;28;20481;-62
2022/07/23 00:17:31;;;;;;;8.07;5.15;;;;;;;18.09;70.35;101802.88;5007760;28;20540;-62
2022/07/23 00:19:57;;;;;;;8.50;5.18;;;;;;;18.05;70.51;101801.06;5006956;28;20038;-62
2022/07/23 00:22:22;;;;;;;7.18;5.00;;;;;;;18.00;70.58;101802.78;5009101;28;20032;-63
2022/07/23 00:24:48;;;;;;;8.77;5.10;;;;;;;17.95;71.00;101799.25;5007892;28;20117;-62
2022/07/23 00:27:13;;;;;;;8.50;5.20;;;;;;;17.90;71.05;101797.44;5009266;28;20106;-62
2022/07/23 00:29:38;;;;;;;9.50;5.15;;;;;;;17.89;70.78;101798.28;5008842;28;20440;-62
2022/07/23 00:32:04;;;;;;;10.48;5.80;;;;;;;17.85;70.94;101799.09;5004479;28;20041;-62
2022/07/23 00:34:29;;;;;;;6.53;4.88;;;;;;;17.84;71.38;101796.47;5006369;28;20030;-62
2022/07/23 00:36:55;;;;;;;8.25;5.40;;;;;;;17.79;71.02;101799.06;5008278;28;20061;-62
2022/07/23 00:39:23;;;;;;;7.53;5.03;;;;;;;17.78;71.18;101799.91;5008329;28;20445;-62
2022/07/23 00:41:51;;;;;;;8.10;4.90;;;;;;;17.74;71.50;101795.50;5006530;28;20041;-62
2022/07/23 00:44:21;;;;;;;6.78;4.68;;;;;;;17.73;71.37;101801.66;5006712;28;20092;-62
2022/07/23 00:46:53;;;;;;;7.78;5.05;;;;;;;17.67;71.38;101791.94;5008613;28;20149;-62
2022/07/23 00:49:23;;;;;;;7.47;5.28;;;;;;;17.62;71.29;101791.00;5010217;28;20064;-62
2022/07/23 00:51:50;;;;;;;8.45;5.57;;;;;;;17.62;72.15;101796.25;5006283;28;20215;-62
2022/07/23 00:54:16;;;;;;;7.43;4.95;;;;;;;17.58;71.81;101793.59;5006623;28;20017;-62
2022/07/23 00:56:44;;;;;;;8.40;5.20;;;;;;;17.54;71.82;101795.31;5003220;28;20494;-62
2022/07/23 00:59:10;;;;;;;7.90;5.10;;;;;;;17.51;71.99;101795.25;5002882;28;20473;-62
2022/07/23 01:01:35;;;;;;;8.57;5.30;;;;;;;17.48;71.74;101793.50;5008305;28;20109;-62
2022/07/23 01:04:00;;;;;;;9.48;5.03;;;;;;;17.47;71.82;101802.28;5004923;28;20499;-62
2022/07/23 01:06:26;;;;;;;8.00;5.38;;;;;;;17.40;71.89;101783.75;5004319;28;20045;-62
2022/07/23 01:08:53;;;;;;;6.35;5.20;;;;;;;17.36;71.86;101783.69;5004719;28;20046;-62
2022/07/23 01:11:19;;;;;;;8.60;5.30;;;;;;;17.32;72.23;101792.47;5009155;28;20501;-62
2022/07/23 01:13:45;;;;;;;9.02;5.45;;;;;;;17.31;71.90;101790.69;5005196;28;20034;-63
2022/07/23 01:16:10;;;;;;;8.57;5.70;;;;;;;17.27;72.52;101783.59;5002516;28;20040;-62
2022/07/23 01:18:35;;;;;;;8.40;5.10;;;;;;;17.25;72.47;101789.72;5003997;28;20084;-62
2022/07/23 01:21:01;;;;;;;7.50;5.35;;;;;;;17.21;72.24;101791.47;5009130;28;20080;-62
2022/07/23 01:23:26;;;;;;;6.47;4.80;;;;;;;17.15;72.22;101778.22;5007908;28;20033;-62
2022/07/23 01:25:53;;;;;;;6.43;4.93;;;;;;;17.04;72.67;101784.22;5006284;28;20026;-62
2022/07/23 01:28:18;;;;;;;8.57;5.60;;;;;;;17.01;72.76;101780.69;5006596;28;20018;-62
2022/07/23 01:30:45;;;;;;;9.88;5.22;;;;;;;16.96;73.18;101782.34;5001089;28;20029;-62
2022/07/23 01:33:10;;;;;;;8.13;5.40;;;;;;;16.96;72.87;101782.34;5008995;28;20026;-62
2022/07/23 01:35:35;;;;;;;8.38;5.80;;;;;;;16.93;73.30;101785.88;5006552;28;20044;-62
2022/07/23 01:38:01;;;;;;;9.63;6.40;;;;;;;16.92;72.72;101776.19;5008476;28;20022;-62
2022/07/23 01:40:26;;;;;;;8.05;5.30;;;;;;;16.90;72.81;101783.19;5007489;28;20038;-62
2022/07/23 01:42:51;;;;;;;9.93;5.70;;;;;;;16.89;73.49;101777.88;5007206;28;20029;-62
2022/07/23 01:45:17;;;;;;;8.20;5.78;;;;;;;16.86;73.24;101774.31;5007434;28;20030;-62
2022/07/23 01:47:42;;;;;;;9.65;5.40;;;;;;;16.81;72.87;101778.63;5009391;28;20104;-62
2022/07/23 01:50:08;;;;;;;7.95;5.57;;;;;;;16.76;73.17;101784.72;5006209;28;20033;-62
2022/07/23 01:52:33;;;;;;;6.75;5.35;;;;;;;16.73;72.89;101779.41;5006903;28;20045;-62
2022/07/23 01:54:58;;;;;;;6.93;5.00;;;;;;;16.71;72.48;101781.16;5008473;28;20073;-62
2022/07/23 01:57:23;;;;;;;9.38;5.30;;;;;;;16.66;72.76;101779.31;5003447;28;20030;-62
2022/07/23 01:59:49;;;;;;;10.27;5.30;;;;;;;16.64;72.58;101781.06;5008303;28;20473;-62
2022/07/23 02:02:14;;;;;;;8.68;6.10;;;;;;;16.60;72.87;101771.38;5003535;28;20046;-62
2022/07/23 02:04:39;;;;;;;8.27;5.68;;;;;;;16.56;72.94;101777.44;5006091;28;20029;-62
2022/07/23 02:07:05;;;;;;;8.68;6.10;;;;;;;16.52;73.38;101771.28;5007049;28;20029;-62
2022/07/23 02:09:31;;;;;;;7.50;5.22;;;;;;;16.51;73.20;101768.59;5007054;28;20034;-62
2022/07/23 02:11:56;;;;;;;7.40;5.15;;;;;;;16.46;73.20;101772.91;5005284;28;20029;-62
2022/07/23 02:14:21;;;;;;;8.73;5.65;;;;;;;16.43;72.81;101764.97;5007803;28;20444;-62
2022/07/23 02:16:46;;;;;;;8.13;5.00;;;;;;;16.40;72.99;101765.81;5011676;28;20029;-62
2022/07/23 02:19:12;;;;;;;7.85;5.38;;;;;;;16.37;73.42;101767.53;5010794;28;20036;-62
2022/07/23 02:21:37;;;;;;;8.15;5.85;;;;;;;16.36;73.42;101764.00;5010250;28;20026;-63
2022/07/23 02:24:03;;;;;;;7.80;5.70;;;;;;;16.28;73.84;101765.63;5007230;28;20547;-62
2022/07/23 02:26:28;;;;;;;9.15;5.88;;;;;;;16.22;73.80;101766.44;5011649;28;20060;-62
2022/07/23 02:28:54;;;;;;;8.20;5.13;;;;;;;16.21;73.78;101769.94;5010890;28;20041;-62
2022/07/23 02:31:20;;;;;;;7.45;5.80;;;;;;;16.20;74.13;101762.03;5010166;28;20030;-62
2022/07/23 02:33:45;;;;;;;8.45;5.50;;;;;;;16.21;73.00;101767.31;5006753;28;20057;-62
2022/07/23 02:36:10;;;;;;;7.47;5.45;;;;;;;16.19;72.57;101761.09;5010990;28;20450;-62
2022/07/23 02:38:36;;;;;;;7.55;5.45;;;;;;;16.14;73.98;101755.78;5011205;28;20025;-62
2022/07/23 02:41:01;;;;;;;9.52;5.22;;;;;;;16.11;73.41;101758.38;5010861;28;20030;-63
2022/07/23 02:43:26;;;;;;;10.70;5.72;;;;;;;16.07;73.88;101761.81;5005247;28;20026;-63
2022/07/23 02:45:52;;;;;;;7.57;5.97;;;;;;;16.04;73.98;101763.53;5009652;28;20026;-62
2022/07/23 02:48:17;;;;;;;8.95;6.20;;;;;;;16.03;73.74;101769.63;5009832;28;20030;-62
2022/07/23 02:50:42;;;;;;;7.10;5.68;;;;;;;15.99;73.63;101769.59;5008835;28;20388;-63
2022/07/23 02:53:08;;;;;;;7.85;5.68;;;;;;;15.97;73.73;101773.03;5007519;28;20095;-63
2022/07/23 02:55:33;;;;;;;9.80;5.97;;;;;;;15.97;73.94;101775.69;5008369;28;20033;-63
2022/07/23 02:57:58;;;;;;;8.60;5.55;;;;;;;15.93;73.64;101779.09;5010477;28;20097;-62
2022/07/23 03:00:24;;;;;;;8.23;5.45;;;;;;;15.89;74.13;101778.19;5009216;28;20038;-62
2022/07/23 03:02:49;;;;;;;8.02;5.45;;;;;;;15.86;73.93;101775.50;5011546;28;20087;-62
2022/07/23 03:05:14;;;;;;;6.70;4.82;;;;;;;15.84;73.69;101776.34;5009244;28;20103;-62
2022/07/23 03:07:40;;;;;;;6.90;5.07;;;;;;;15.77;73.60;101783.19;5012082;28;20033;-62
2022/07/23 03:10:06;;;;;;;6.40;4.88;;;;;;;15.75;73.73;101777.03;5007538;28;20079;-62
2022/07/23 03:12:31;;;;;;;7.60;4.95;;;;;;;15.72;73.88;101780.47;5008054;28;20030;-62
2022/07/23 03:14:56;;;;;;;14.70;5.75;;;;;;;15.69;73.65;101775.19;5008335;28;20033;-62
2022/07/23 03:17:21;;;;;;;6.90;4.80;;;;;;;15.69;73.49;101782.19;5010383;28;20041;-62
2022/07/23 03:19:47;;;;;;;9.75;5.00;;;;;;;15.64;73.58;101783.00;5011134;28;20497;-62
2022/07/23 03:22:12;;;;;;;7.70;5.50;;;;;;;15.63;73.86;101780.34;5008645;28;20493;-62
2022/07/23 03:24:55;;;;;;;9.57;6.10;;;;;;;15.62;74.31;101783.81;5010746;28;20556;-62
2022/07/23 03:27:25;;;;;;;7.93;5.40;;;;;;;15.60;73.90;101781.16;5008070;28;20036;-62
2022/07/23 03:29:55;;;;;;;8.65;6.05;;;;;;;15.56;74.65;101778.47;5008980;28;20484;-62
2022/07/23 03:32:21;;;;;;;9.95;6.45;;;;;;;15.54;74.45;101788.94;5009266;28;20053;-63
2022/07/23 03:34:46;;;;;;;9.68;6.07;;;;;;;15.54;74.51;101795.91;5011100;28;20433;-62
2022/07/23 03:37:12;;;;;;;8.73;6.22;;;;;;;15.51;74.47;101790.59;5009243;28;20048;-62
2022/07/23 03:39:37;;;;;;;9.57;6.75;;;;;;;15.47;74.45;101789.69;5010997;28;20032;-62
2022/07/23 03:42:03;;;;;;;9.85;6.82;;;;;;;15.45;74.67;101787.03;5003499;28;21042;-62
2022/07/23 03:44:28;;;;;;;10.80;7.10;;;;;;;15.45;74.67;101792.28;5009309;28;20065;-62
2022/07/23 03:46:53;;;;;;;11.15;7.70;;;;;;;15.46;74.93;101794.03;5009674;28;20030;-61
2022/07/23 03:49:19;;;;;;;10.82;7.32;;;;;;;15.45;75.03;101799.25;5009545;28;20397;-62
2022/07/23 03:51:44;;;;;;;10.80;7.57;;;;;;;15.41;75.52;101789.53;5008984;28;20044;-62
2022/07/23 03:54:09;;;;;;;12.15;7.47;;;;;;;15.39;74.89;101792.16;5009145;28;20036;-63
2022/07/23 03:56:35;;;;;;;14.00;7.90;;;;;;;15.38;75.31;101800.91;5009492;28;20052;-62
2022/07/23 03:59:00;;;;;;;8.18;5.93;;;;;;;15.34;74.87;101800.78;5008771;28;20029;-62
2022/07/23 04:01:26;;;;;;;9.70;6.22;;;;;;;15.32;74.92;101795.50;5006964;28;20447;-62
2022/07/23 04:03:51;;;;;;;9.55;6.05;;;;;;;15.32;74.96;101800.75;5009107;28;20087;-62
2022/07/23 04:06:17;;;;;;;9.10;6.50;;;;;;;15.29;74.40;101799.00;5006416;28;20025;-62
2022/07/23 04:08:42;;;;;;;9.98;7.40;;;;;;;15.29;74.78;101796.34;5007514;28;20553;-62
2022/07/23 04:11:07;;;;;;;10.10;7.43;;;;;;;15.28;75.12;101797.19;5009832;28;20026;-62
2022/07/23 04:13:33;;;;;;;12.93;8.70;;;;;;;15.25;75.56;101798.88;4999401;28;20025;-62
2022/07/23 04:15:58;;;;;;;12.63;8.60;;;;;;;15.22;75.58;101804.97;5002667;28;20500;-62
2022/07/23 04:18:24;;;;;;;11.65;7.90;;;;;;;15.20;75.51;101806.66;5007775;28;20033;-63
2022/07/23 04:20:50;;;;;;;13.02;8.32;;;;;;;15.17;75.68;101813.59;5009475;28;20022;-62
2022/07/23 04:23:16;;;;;;;10.63;7.47;;;;;;;15.15;75.60;101810.03;5007439;28;20026;-62
2022/07/23 04:25:42;;;;;;;10.95;7.60;;;;;;;15.11;75.95;101811.75;5007700;28;20556;-62
2022/07/23 04:28:07;;;;;;;11.43;8.02;;;;;;;15.10;75.69;101809.97;5009473;28;20025;-62
2022/07/23 04:30:32;;;;;;;13.35;7.85;;;;;;;15.09;75.90;101806.47;5007137;28;20556;-62
2022/07/23 04:32:58;;;;;;;12.07;8.05;;;;;;;15.07;76.15;101813.41;5009095;28;20521;-62
2022/07/23 04:35:23;;;;;;;12.23;8.70;;;;;;;15.05;75.98;101817.75;5005949;28;20441;-62
2022/07/23 04:37:48;;;;;;;13.18;8.88;;;;;;;15.05;76.28;101820.38;5009540;28;20038;-62
2022/07/23 04:40:14;;;;;;;12.68;8.93;;;;;;;15.04;76.17;101823.84;5005227;28;20127;-62
2022/07/23 04:42:39;;;;;;;13.35;9.55;;;;;;;15.05;76.42;101825.63;5008725;28;20540;-62
2022/07/23 04:45:05;;;;;;;14.00;9.80;;;;;;;15.03;77.16;101824.69;5004626;28;20057;-62
2022/07/23 04:47:31;;;;;;;13.63;9.70;;;;;;;15.03;77.20;101827.31;5003248;28;20038;-62
2022/07/23 04:49:57;;;;;;;14.20;9.77;;;;;;;15.03;77.34;101835.19;5007874;28;20536;-62
2022/07/23 04:52:23;;;;;;;14.02;9.90;;;;;;;15.03;77.80;101835.19;5006681;28;20044;-62
2022/07/23 04:54:48;;;;;;;13.32;10.30;;;;;;;15.04;77.95;101843.97;5009391;28;20029;-62
2022/07/23 04:57:13;;;;;;;13.27;9.95;;;;;;;15.04;78.11;101842.22;5006546;28;20439;-62
2022/07/23 04:59:38;;;;;;;13.95;10.02;;;;;;;15.04;78.00;101836.97;5004846;28;20022;-62
2022/07/23 05:02:04;;;;;;;15.15;10.57;;;;;;;15.06;77.89;101840.53;5008432;28;20057;-62
2022/07/23 05:04:30;;;;;;;14.93;10.90;;;;;;;15.06;77.82;101832.66;5008357;28;20037;-62
2022/07/23 05:06:57;;;;;;;13.60;10.63;;;;;;;15.08;78.45;101837.94;5004027;28;20026;-62
2022/07/23 05:09:22;;;;;;;15.43;10.75;;;;;;;15.09;78.99;101843.22;5007413;28;20054;-62
2022/07/23 05:11:47;;;;;;;15.77;11.65;;;;;;;15.09;79.11;101832.72;5004431;28;20392;-62
2022/07/23 05:14:13;;;;;;;14.80;11.05;;;;;;;15.10;79.14;101842.34;5008360;28;20500;-62
2022/07/23 05:16:38;;;;;;;17.70;11.40;;;;;;;15.10;78.71;101836.22;5009566;28;20499;-62
2022/07/23 05:19:04;;;;;;;17.05;11.60;;;;;;;15.13;79.30;101841.53;5005625;28;20034;-62
2022/07/23 05:21:29;;;;;;;16.30;12.05;;;;;;;15.13;79.30;101841.53;5001060;28;20026;-62
2022/07/23 05:23:54;;;;;;;16.58;11.70;;;;;;;15.14;79.57;101848.56;5007558;28;20061;-62
2022/07/23 05:26:20;;;;;;;15.65;11.38;;;;;;;15.17;79.47;101852.97;5007011;28;20477;-62
2022/07/23 05:28:45;;;;;;;16.38;11.45;;;;;;;15.17;80.18;101848.59;5008494;28;20375;-62
2022/07/23 05:31:10;;;;;;;16.73;11.77;;;;;;;15.21;80.06;101852.19;5005806;28;20440;-63
2022/07/23 05:33:36;;;;;;;18.40;12.40;;;;;;;15.22;79.91;101846.97;5008155;28;20025;-63
2022/07/23 05:36:03;;;;;;;18.77;11.63;;;;;;;15.25;79.64;101854.91;5008255;28;20026;-63
2022/07/23 05:38:28;;;;;;;18.35;12.82;;;;;;;15.27;80.30;101849.69;5005515;28;20033;-63
2022/07/23 05:40:54;;;;;;;18.02;11.93;;;;;;;15.31;79.87;101854.16;5008208;28;20091;-63
2022/07/23 05:43:19;;;;;;;18.00;11.98;;;;;;;15.33;80.14;101862.94;5007742;28;20559;-63
2022/07/23 05:45:44;;;;;;;19.05;12.85;;;;;;;15.35;80.87;101858.63;5009432;28;20037;-63
2022/07/23 05:48:10;;;;;;;15.88;11.77;;;;;;;15.37;80.87;101864.78;5005411;28;20404;-62
2022/07/23 05:50:35;;;;;;;18.67;12.60;;;;;;;15.39;80.86;101860.44;5010367;28;20489;-62
2022/07/23 05:53:00;;;;;;;16.13;12.50;;;;;;;15.42;81.19;101860.47;5009239;28;20061;-63
2022/07/23 05:55:28;;;;;;;20.25;12.95;;;;;;;15.45;80.49;101871.06;5007577;28;20112;-63
2022/07/23 05:57:54;;;;;;;17.92;12.25;;;;;;;15.48;81.61;101868.50;5011305;28;20045;-63
2022/07/23 06:00:20;;;;;;;16.40;11.82;;;;;;;15.52;81.89;101877.31;5007630;28;20030;-62
2022/07/23 06:02:45;;;;;;;19.80;13.02;;;;;;;15.54;81.61;101875.63;5013287;28;20077;-63
2022/07/23 06:05:10;;;;;;;17.38;12.20;;;;;;;15.58;81.70;101880.09;5009150;28;20022;-63
2022/07/23 06:07:36;;;;;;;15.65;11.60;;;;;;;15.62;82.31;101875.75;5011583;28;20068;-62
2022/07/23 06:10:01;;;;;;;19.27;13.18;;;;;;;15.65;82.57;101886.31;5010045;28;20078;-62
2022/07/23 06:12:27;;;;;;;17.30;12.10;;;;;;;15.70;81.41;101882.06;5007720;28;20030;-63
2022/07/23 06:14:52;;;;;;;19.67;13.10;;;;;;;15.73;82.44;101887.38;5010162;28;20124;-62
2022/07/23 06:17:18;;;;;;;18.75;12.85;;;;;;;15.78;83.03;101885.72;5009806;28;20127;-62
2022/07/23 06:19:43;;;;;;;17.80;12.48;;;;;;;15.82;82.84;101887.56;5009462;28;20091;-63
2022/07/23 06:22:09;;;;;;;19.73;12.57;;;;;;;15.89;82.40;101892.94;5005346;28;20037;-62
2022/07/23 06:24:34;;;;;;;19.00;11.95;;;;;;;15.94;82.08;101881.66;5011312;28;20559;-62
2022/07/23 06:26:59;;;;;;;16.08;11.68;;;;;;;15.99;82.41;101887.88;5009030;28;20023;-62
2022/07/23 06:29:25;;;;;;;20.00;12.55;;;;;;;16.05;82.07;101879.22;5009085;28;20496;-61
2022/07/23 06:31:50;;;;;;;18.13;12.38;;;;;;;16.12;81.75;101886.34;5004833;28;20040;-62
2022/07/23 06:34:15;;;;;;;16.33;11.13;;;;;;;16.19;81.33;101887.34;5010737;28;20670;-62
2022/07/23 06:36:41;;;;;;;17.25;12.05;;;;;;;16.25;80.80;101881.28;5003958;28;20038;-62
2022/07/23 06:39:06;;;;;;;16.35;10.88;;;;;;;16.29;80.89;101888.38;5004129;28;20034;-63
2022/07/23 06:41:31;;;;;;;16.42;11.20;;;;;;;16.36;81.12;101890.25;5004299;28;20036;-62
2022/07/23 06:43:56;;;;;;;18.42;11.18;;;;;;;16.42;80.55;101887.72;5002749;28;20088;-63
2022/07/23 06:46:22;;;;;;;14.98;11.15;;;;;;;16.47;80.63;101886.06;5011816;28;20100;-62
2022/07/23 06:48:47;;;;;;;16.52;10.90;;;;;;;16.52;80.10;101891.38;5011878;28;20088;-62
2022/07/23 06:51:12;;;;;;;15.07;10.48;;;;;;;16.58;80.12;101882.72;5010233;28;20404;-62
2022/07/23 06:53:38;;;;;;;12.77;9.63;;;;;;;16.64;80.42;101882.78;5011100;28;20044;-63
2022/07/23 06:56:03;;;;;;;13.57;9.13;;;;;;;16.69;79.11;101889.03;5011023;28;20025;-62
2022/07/23 06:58:29;;;;;;;15.40;9.40;;;;;;;16.75;78.75;101891.75;5011977;28;20432;-62
2022/07/23 07:00:56;;;;;;;12.55;9.10;;;;;;;16.79;78.51;101890.06;5011576;28;20050;-62
2022/07/23 07:03:22;;;;;;;15.88;9.68;;;;;;;16.86;77.92;101894.56;5011525;28;20053;-62
2022/07/23 07:05:47;;;;;;;16.85;8.95;;;;;;;16.92;78.36;101885.88;5009832;28;20144;-62
2022/07/23 07:08:12;;;;;;;12.07;8.40;;;;;;;16.97;78.61;101885.06;5011625;28;20057;-62
2022/07/23 07:10:37;;;;;;;11.18;7.72;;;;;;;17.04;77.17;101883.41;5011921;28;20124;-62
2022/07/23 07:13:03;;;;;;;11.73;7.65;;;;;;;17.08;77.45;101887.84;5011766;28;20057;-62
2022/07/23 07:15:28;;;;;;;11.15;7.57;;;;;;;17.14;76.37;101885.28;5009348;28;20378;-62
2022/07/23 07:17:53;;;;;;;13.23;8.20;;;;;;;17.21;76.61;101889.78;5002760;28;20645;-61
2022/07/23 07:20:19;;;;;;;13.25;7.90;;;;;;;17.26;77.87;101881.06;5008956;28;20037;-62
2022/07/23 07:22:44;;;;;;;10.77;7.18;;;;;;;17.31;77.11;101880.25;5008205;28;20052;-62
2022/07/23 07:25:09;;;;;;;13.50;7.15;;;;;;;17.37;76.65;101880.31;5011478;28;20061;-61
2022/07/23 07:27:35;;;;;;;13.88;8.18;;;;;;;17.42;76.05;101888.28;5005028;28;20633;-62
2022/07/23 07:30:00;;;;;;;10.63;7.68;;;;;;;17.49;75.76;101889.25;5003843;28;20045;-61
2022/07/23 07:32:26;;;;;;;10.75;7.68;;;;;;;17.52;74.47;101897.19;5011319;28;20033;-61
2022/07/23 07:34:51;;;;;;;12.57;7.57;;;;;;;17.56;74.15;101902.50;5007464;28;20266;-61
2022/07/23 07:37:16;;;;;;;10.30;7.00;;;;;;;17.63;74.70;101899.97;5009674;28;20033;-61
2022/07/23 07:39:42;;;;;;;11.48;7.05;;;;;;;17.70;75.33;101902.66;5007909;28;20033;-61
2022/07/23 07:42:07;;;;;;;11.43;7.43;;;;;;;17.73;73.61;101905.34;5009687;28;20022;-61
2022/07/23 07:44:32;;;;;;;10.95;7.00;;;;;;;17.79;74.06;101899.25;5009905;28;20026;-60
2022/07/23 07:46:58;;;;;;;11.52;6.88;;;;;;;17.84;72.90;101902.81;5009130;28;20037;-61
2022/07/23 07:49:23;;;;;;;10.75;6.47;;;;;;;17.90;72.73;101899.38;5009984;28;20386;-61
2022/07/23 07:51:49;;;;;;;10.60;6.50;;;;;;;17.94;72.55;101895.03;5005597;28;20026;-61
2022/07/23 07:54:14;;;;;;;10.68;6.45;;;;;;;17.95;71.92;101899.44;5009717;28;20104;-61
2022/07/23 07:56:40;;;;;;;9.05;5.95;;;;;;;18.02;71.96;101891.59;5009206;28;20038;-61
2022/07/23 07:59:05;;;;;;;10.27;6.15;;;;;;;18.04;71.26;101889.84;5008694;28;20041;-61
2022/07/23 08:01:31;;;;;;;10.15;5.97;;;;;;;18.10;72.02;101896.94;5008813;28;20087;-61
2022/07/23 08:03:56;;;;;;;8.43;6.35;;;;;;;18.16;71.32;101904.03;5009887;28;20068;-61
2022/07/23 08:06:21;;;;;;;10.85;5.90;;;;;;;18.19;71.56;101904.94;5008292;28;20049;-61
2022/07/23 08:08:47;;;;;;;11.48;6.90;;;;;;;18.24;71.09;101908.50;5011485;28;20042;-61
2022/07/23 08:11:12;;;;;;;8.02;4.70;;;;;;;18.34;71.41;101900.69;5009240;28;20037;-61
2022/07/23 08:13:38;;;;;;;9.10;5.32;;;;;;;18.46;72.05;101905.16;5009921;28;20033;-61
2022/07/23 08:16:03;;;;;;;10.90;6.28;;;;;;;18.48;69.32;101906.06;5011475;28;20025;-61
2022/07/23 08:18:29;;;;;;;10.40;6.00;;;;;;;18.52;70.24;101908.72;5011266;28;20595;-62
2022/07/23 08:20:54;;;;;;;10.38;6.57;;;;;;;18.60;71.16;101908.81;5001833;28;20053;-62
2022/07/23 08:23:20;;;;;;;10.20;5.82;;;;;;;18.65;72.43;101908.81;5010337;28;20025;-61
2022/07/23 08:25:46;;;;;;;10.23;5.93;;;;;;;18.73;72.50;101913.28;5009932;28;20057;-61
2022/07/23 08:28:13;;;;;;;10.10;5.50;;;;;;;18.81;70.95;101913.31;5008977;28;20034;-61
2022/07/23 08:30:40;;;;;;;9.85;5.95;;;;;;;18.90;70.65;101916.09;5008383;28;20029;-62
2022/07/23 08:33:07;;;;;;;8.73;5.53;;;;;;;18.96;70.39;101919.63;5008285;28;20083;-61
2022/07/23 08:35:38;;;;;;;9.50;5.85;;;;;;;19.03;69.74;101931.97;5007943;28;20048;-62
2022/07/23 08:38:09;;;;;;;7.88;5.72;;;;;;;19.06;69.01;101939.91;5006784;28;20498;-61
2022/07/23 08:40:37;;;;;;;10.50;6.53;;;;;;;19.09;67.50;101934.69;5005799;28;20099;-62
2022/07/23 08:43:08;;;;;;;11.07;6.63;;;;;;;19.14;68.07;101929.44;5003870;28;20034;-62
2022/07/23 08:45:38;;;;;;;9.40;5.70;;;;;;;19.19;68.29;101939.16;5007682;28;20029;-62
2022/07/23 08:48:04;;;;;;;;;;;;;;;19.28;69.47;101939.19;5008859;28;20176;-61
2022/07/23 08:50:31;;;;;;;8.38;5.47;;;;;;;19.34;67.81;101942.75;5006157;28;20266;-61
2022/07/23 08:52:58;;;;;;;8.90;5.57;;;;;;;19.40;68.61;101935.72;5004607;28;20033;-61
2022/07/23 08:55:23;;;;;;;7.63;5.38;;;;;;;19.50;68.99;101936.63;5008850;28;20357;-61
2022/07/23 08:57:52;;;;;;;9.50;5.75;;;;;;;19.59;68.13;101941.06;5001832;28;20079;-61
2022/07/23 09:00:19;;;;;;;9.17;5.63;;;;;;;19.63;66.04;101945.50;5005713;28;20480;-61
2022/07/23 09:02:45;;;;;;;11.85;5.68;;;;;;;19.67;66.04;101936.72;5007035;28;20025;-61
2022/07/23 09:05:12;;;;;;;9.48;5.95;;;;;;;19.73;65.66;101936.72;5008314;28;20153;-62
2022/07/23 09:08:10;;;;;;;9.30;5.50;;;;;;;19.84;68.49;101944.69;5008496;28;20030;-62
2022/07/23 09:10:53;;;;;;;8.70;4.90;;;;;;;19.91;65.66;101938.53;5002981;28;20037;-62
2022/07/23 09:13:48;;;;;;;9.68;5.18;;;;;;;19.98;67.53;101927.09;5004911;28;20034;-62
2022/07/23 09:16:35;;;;;;;9.30;4.88;;;;;;;20.06;66.12;101935.06;4998333;28;20109;-62
2022/07/23 09:19:05;;;;;;;9.48;5.50;;;;;;;20.10;62.16;101928.91;5001934;28;20057;-62
2022/07/23 09:21:34;;;;;;;9.30;5.30;;;;;;;20.18;65.96;101913.03;5006028;28;20525;-62
2022/07/23 09:24:04;;;;;;;9.20;5.50;;;;;;;20.27;65.24;101912.16;5004507;28;20060;-62
2022/07/23 09:26:32;;;;;;;9.02;5.38;;;;;;;20.38;66.33;101909.50;4998973;28;20041;-62
2022/07/23 09:29:25;;;;;;;8.57;5.53;;;;;;;20.47;66.58;101905.09;5004733;28;20026;-62
2022/07/23 09:31:51;;;;;;;11.35;5.28;;;;;;;20.56;65.45;101905.97;5002653;28;20127;-62
2022/07/23 09:34:27;;;;;;;7.45;4.85;;;;;;;20.65;66.05;101912.16;5007439;28;20034;-62
2022/07/23 09:36:55;;;;;;;8.15;5.53;;;;;;;20.77;64.89;101920.97;5005276;28;20034;-62
2022/07/23 09:39:32;;;;;;;7.85;4.63;;;;;;;20.87;66.83;101924.50;5008107;28;20026;-62
2022/07/23 09:42:13;;;;;;;8.85;4.80;;;;;;;20.92;62.94;101926.25;5001195;28;20034;-63
2022/07/23 09:44:47;;;;;;;9.23;4.65;;;;;;;21.03;64.77;101923.59;5005845;28;21078;-63
2022/07/23 09:47:12;;;;;;;8.73;4.88;;;;;;;21.07;62.43;101927.97;5006890;28;20033;-62
2022/07/23 09:49:38;;;;;;;7.05;4.50;;;;;;;21.12;62.99;101933.28;5008174;28;20378;-63
2022/07/23 09:52:03;;;;;;;6.03;4.03;;;;;;;21.19;61.39;101933.25;5004072;28;20034;-63
2022/07/23 09:54:39;;;;;;;6.50;4.22;;;;;;;21.26;61.69;101928.81;5006370;28;20026;-63
2022/07/23 09:57:16;;;;;;;8.98;5.15;;;;;;;21.27;59.39;101927.91;5000278;28;20030;-61
2022/07/23 09:59:43;;;;;;;7.53;4.70;;;;;;;21.32;60.48;101931.44;5001952;28;20026;-61
2022/07/23 10:02:11;;;;;;;6.63;4.65;;;;;;;21.39;60.05;101923.44;5001759;28;20460;-60
2022/07/23 10:04:37;;;;;;;5.70;4.50;;;;;;;21.43;59.66;101928.72;5001345;28;20049;-61
2022/07/23 10:07:06;;;;;;;7.03;4.57;;;;;;;21.48;60.60;101929.59;5000885;28;20117;-62
2022/07/23 10:09:34;;;;;;;7.30;4.28;;;;;;;21.57;59.86;101933.16;5000867;28;20034;-61
2022/07/23 10:14:46;;;;;;;7.22;4.85;;;;;;;21.73;58.90;101923.34;5000160;28;20092;-61
2022/07/23 10:17:12;;;;;;;6.22;4.40;;;;;;;21.79;60.58;101924.16;5000486;28;20038;-61
2022/07/23 10:19:38;;;;;;;5.97;3.78;;;;;;;21.87;62.07;101934.75;5000957;28;20064;-61
2022/07/23 10:22:07;;;;;;;9.15;4.32;;;;;;;21.98;61.99;101929.38;5000911;28;20025;-59
2022/07/23 10:25:06;;;;;;;7.60;4.30;;;;;;;22.01;60.76;101930.22;5000057;28;20732;-59
2022/07/23 10:27:37;;;;;;;6.32;4.32;;;;;;;22.10;57.79;101933.72;5004974;28;20097;-63
2022/07/23 10:30:06;;;;;;;6.63;3.80;;;;;;;22.14;57.94;101928.34;5003134;28;20582;-63
2022/07/23 10:32:57;;;;;;;5.68;3.70;;;;;;;22.23;57.83;101925.66;5004787;28;20034;-62
2022/07/23 10:35:29;;;;;;;5.55;2.95;;;;;;;22.33;57.47;101930.91;5004523;28;20042;-63
2022/07/23 10:38:06;;;;;;;6.75;4.00;;;;;;;22.37;57.19;101928.22;5003160;28;20026;-62
2022/07/23 10:40:32;;;;;;;7.28;4.20;;;;;;;22.42;56.80;101930.84;5002878;28;20581;-64
2022/07/23 10:43:00;;;;;;;5.97;3.97;;;;;;;22.46;55.98;101931.69;5008403;28;20093;-64
2022/07/23 10:45:32;;;;;;;5.40;3.53;;;;;;;22.56;55.54;101933.38;5005087;28;20053;-61
2022/07/23 10:48:13;;;;;;;5.28;3.60;;;;;;;22.56;55.42;101923.66;5012970;28;20045;-62
2022/07/23 10:50:39;;;;;;;5.63;3.45;;;;;;;22.59;54.29;101928.03;4999959;28;20014;-62
2022/07/23 10:53:17;;;;;;;5.30;3.10;;;;;;;22.69;56.46;101921.72;5012915;28;20366;-63
2022/07/23 10:55:53;;;;;;;6.75;3.20;;;;;;;22.80;57.53;101920.78;5008860;28;20034;-63
2022/07/23 10:58:21;;;;;;;4.43;2.75;;;;;;;22.93;57.92;101917.94;5011185;28;20105;-63
2022/07/23 11:00:46;;;;;;;4.00;2.90;;;;;;;23.09;57.67;101918.66;5012769;28;20030;-63
2022/07/23 11:03:37;;;;;;;6.18;3.78;;;;;;;23.17;57.07;101925.69;5011571;28;20037;-63
2022/07/23 11:06:03;;;;;;;8.57;3.60;;;;;;;23.22;55.29;101929.19;5010841;28;20076;-63
2022/07/23 11:08:29;;;;;;;4.75;2.75;;;;;;;23.26;56.07;101931.78;5011076;28;20058;-63
2022/07/23 11:11:08;;;;;;;5.35;2.65;;;;;;;23.34;56.23;101929.03;5011808;28;20036;-63
2022/07/23 11:13:44;;;;;;;4.80;2.92;;;;;;;23.38;52.28;101927.22;5011649;28;20054;-63
2022/07/23 11:16:18;;;;;;;5.25;3.08;;;;;;;23.42;53.51;101921.84;5011307;28;20101;-62
2022/07/23 11:18:43;;;;;;;3.90;2.78;;;;;;;23.43;53.67;101920.97;5010690;28;20062;-62
2022/07/23 11:21:28;;;;;;;4.00;2.40;;;;;;;23.54;55.78;101914.59;5011471;28;20464;-63
2022/07/23 11:24:03;;;;;;;4.80;2.40;;;;;;;23.60;54.13;101918.03;5010379;28;20303;-62